Honokaa, Hawaii
Current Conditions -  °F | °C
As of 11:56 AM on Wednesday 28 Jan 2015 (Local Time) from PHSF Reporting Station
Clear Clear  
Wind Chill: 66°   Ceiling: Unl
Heat Index: 66°   Visibility: 10mi
Dew Point: 45°   Wind: 6mph
Humidity: 47%   Direction: 260°W
Pressure: 30.27"   Gusts: NA
Location:  20.07°N, 155.46°W
Report Text: PHSF 282156Z AUTO 26005KT 10SM CLR 19/07 A3027 RMK AO2 SLP145 T01880072 $
Loading
Personal Weather Stations






























Interactive Weather Map New forecast layout! Learn more

10-Day Weather Forecast

Advertisements
Track Severe Weather on mobile